Main page
METAR-TAF:

METAR-TAF

Airports :

Karlovy Vary, Czech Republic

Karlovy Vary Airport

latitude: 50-12N, longitude: 012-55E, elevation: 603 m

Current weather observation

The report was made 43 minutes ago, at 22:00 UTC
Wind 3 kt from the East
Temperature 2°C
Humidity 80%
Pressure 1018 hPa
Visibility 10 km or more
no clouds below 1500 m and no cumulonimbus

METAR: LKKV 262200Z 08003KT CAVOK 02/M01 Q1018

Time: 00:43 (22:43 UTC)

Forecast

The report was made 5 hours and 43 minutes ago, at 17:00 UTC
Forecast valid from 26 at 18 UTC to 28 at 00 UTC
Wind 6 kt from the West
Visibility 10 km or more
no clouds below 1500 m and no cumulonimbus
Becoming
from 26 at 22 UTC to 27 at 00 UTC
Wind 2 kt from variable directions
Becoming
from 27 at 10 UTC to 27 at 12 UTC
Wind 4 kt from the South/Southeast
Becoming
from 27 at 18 UTC to 27 at 20 UTC
Wind 2 kt from variable directions

TAF: LKKV 261700Z 2618/2800 27006KT CAVOK BECMG 2622/2700 VRB02KT BECMG 2710/2712 16004KT BECMG 2718/2720 VRB02KT

Weather observations and forecasts of more than 4000 airports (METAR and TAF reports).

The available stations are represented by yellow and red dots on the map.

Hover mouse over dot to see the name of the station.

Then click to see weather observations and forecasts.

To change the map : click on the green buttons with a black cross to zoom in, on the green button with a dash to zoom out, or on the green arrows for adjacent maps.


METAR-TAF: